sensor_id;sensor_type;location;lat;lon;timestamp;P1;durP1;ratioP1;P2;durP2;ratioP2
66587;SDS011;53446;50.076;8.198;2023-05-07T00:01:13;274.13;;;130.48;;
66587;SDS011;53446;50.076;8.198;2023-05-07T00:03:14;274.70;;;129.93;;
66587;SDS011;53446;50.076;8.198;2023-05-07T00:05:14;275.27;;;129.77;;
66587;SDS011;53446;50.076;8.198;2023-05-07T00:07:14;277.50;;;132.23;;
66587;SDS011;53446;50.076;8.198;2023-05-07T00:09:15;274.47;;;131.13;;
66587;SDS011;53446;50.076;8.198;2023-05-07T00:11:16;282.63;;;133.05;;
66587;SDS011;53446;50.076;8.198;2023-05-07T00:13:16;279.50;;;132.07;;
66587;SDS011;53446;50.076;8.198;2023-05-07T00:15:17;280.83;;;133.00;;
66587;SDS011;53446;50.076;8.198;2023-05-07T00:17:17;285.10;;;133.87;;
66587;SDS011;53446;50.076;8.198;2023-05-07T00:19:17;281.55;;;132.93;;
66587;SDS011;53446;50.076;8.198;2023-05-07T00:21:17;283.17;;;133.75;;
66587;SDS011;53446;50.076;8.198;2023-05-07T00:23:18;278.70;;;131.63;;
66587;SDS011;53446;50.076;8.198;2023-05-07T00:25:18;280.60;;;132.63;;
66587;SDS011;53446;50.076;8.198;2023-05-07T00:27:19;279.73;;;131.90;;
66587;SDS011;53446;50.076;8.198;2023-05-07T00:29:19;280.03;;;131.37;;
66587;SDS011;53446;50.076;8.198;2023-05-07T00:31:20;282.40;;;132.00;;
66587;SDS011;53446;50.076;8.198;2023-05-07T00:33:20;282.60;;;133.57;;
66587;SDS011;53446;50.076;8.198;2023-05-07T00:35:21;285.90;;;134.37;;
66587;SDS011;53446;50.076;8.198;2023-05-07T00:37:21;284.03;;;133.53;;
66587;SDS011;53446;50.076;8.198;2023-05-07T00:39:21;284.20;;;132.80;;
66587;SDS011;53446;50.076;8.198;2023-05-07T00:41:21;283.13;;;132.77;;
66587;SDS011;53446;50.076;8.198;2023-05-07T00:43:22;293.75;;;135.30;;
66587;SDS011;53446;50.076;8.198;2023-05-07T00:45:22;288.23;;;133.77;;
66587;SDS011;53446;50.076;8.198;2023-05-07T00:47:25;289.98;;;133.93;;
66587;SDS011;53446;50.076;8.198;2023-05-07T00:49:26;290.03;;;134.77;;
66587;SDS011;53446;50.076;8.198;2023-05-07T00:51:41;288.65;;;134.52;;
66587;SDS011;53446;50.076;8.198;2023-05-07T00:53:41;288.50;;;135.83;;
66587;SDS011;53446;50.076;8.198;2023-05-07T00:55:42;287.95;;;135.27;;
66587;SDS011;53446;50.076;8.198;2023-05-07T00:57:42;289.23;;;134.90;;
66587;SDS011;53446;50.076;8.198;2023-05-07T00:59:43;285.30;;;133.98;;
66587;SDS011;53446;50.076;8.198;2023-05-07T01:01:44;286.67;;;134.77;;
66587;SDS011;53446;50.076;8.198;2023-05-07T01:03:44;284.83;;;133.60;;
66587;SDS011;53446;50.076;8.198;2023-05-07T01:05:44;283.17;;;133.50;;
66587;SDS011;53446;50.076;8.198;2023-05-07T01:07:46;285.38;;;133.38;;
66587;SDS011;53446;50.076;8.198;2023-05-07T01:09:47;284.50;;;132.23;;
66587;SDS011;53446;50.076;8.198;2023-05-07T01:11:47;282.30;;;132.85;;
66587;SDS011;53446;50.076;8.198;2023-05-07T01:13:49;238.68;;;119.13;;
66587;SDS011;53446;50.076;8.198;2023-05-07T01:15:50;208.40;;;109.43;;
66587;SDS011;53446;50.076;8.198;2023-05-07T01:17:50;190.77;;;105.13;;
66587;SDS011;53446;50.076;8.198;2023-05-07T01:19:51;157.15;;;94.20;;
66587;SDS011;53446;50.076;8.198;2023-05-07T01:21:52;191.68;;;105.15;;
66587;SDS011;53446;50.076;8.198;2023-05-07T01:24:02;184.40;;;102.63;;
66587;SDS011;53446;50.076;8.198;2023-05-07T01:26:04;179.57;;;100.18;;
66587;SDS011;53446;50.076;8.198;2023-05-07T01:28:04;185.67;;;102.07;;
66587;SDS011;53446;50.076;8.198;2023-05-07T01:30:05;183.50;;;101.68;;
66587;SDS011;53446;50.076;8.198;2023-05-07T01:32:06;184.25;;;101.88;;
66587;SDS011;53446;50.076;8.198;2023-05-07T01:34:07;220.30;;;114.37;;
66587;SDS011;53446;50.076;8.198;2023-05-07T01:36:08;234.82;;;118.18;;
66587;SDS011;53446;50.076;8.198;2023-05-07T01:38:10;240.25;;;119.88;;
66587;SDS011;53446;50.076;8.198;2023-05-07T01:40:10;237.27;;;119.27;;
66587;SDS011;53446;50.076;8.198;2023-05-07T01:42:10;219.47;;;113.93;;
66587;SDS011;53446;50.076;8.198;2023-05-07T01:44:12;227.45;;;116.15;;
66587;SDS011;53446;50.076;8.198;2023-05-07T01:46:12;226.95;;;116.28;;
66587;SDS011;53446;50.076;8.198;2023-05-07T01:48:13;219.33;;;112.90;;
66587;SDS011;53446;50.076;8.198;2023-05-07T01:50:14;220.63;;;113.55;;
66587;SDS011;53446;50.076;8.198;2023-05-07T01:52:16;210.47;;;110.13;;
66587;SDS011;53446;50.076;8.198;2023-05-07T01:54:16;205.48;;;109.07;;
66587;SDS011;53446;50.076;8.198;2023-05-07T01:56:17;204.93;;;108.93;;
66587;SDS011;53446;50.076;8.198;2023-05-07T01:58:18;219.25;;;112.30;;
66587;SDS011;53446;50.076;8.198;2023-05-07T02:00:18;234.70;;;118.05;;
66587;SDS011;53446;50.076;8.198;2023-05-07T02:02:19;240.67;;;119.53;;
66587;SDS011;53446;50.076;8.198;2023-05-07T02:04:19;244.83;;;121.47;;
66587;SDS011;53446;50.076;8.198;2023-05-07T02:06:19;236.40;;;117.70;;
66587;SDS011;53446;50.076;8.198;2023-05-07T02:08:20;238.63;;;119.50;;
66587;SDS011;53446;50.076;8.198;2023-05-07T02:10:20;219.50;;;113.43;;
66587;SDS011;53446;50.076;8.198;2023-05-07T02:12:21;219.60;;;114.20;;
66587;SDS011;53446;50.076;8.198;2023-05-07T02:14:21;210.20;;;111.15;;
66587;SDS011;53446;50.076;8.198;2023-05-07T02:16:22;211.27;;;111.47;;
66587;SDS011;53446;50.076;8.198;2023-05-07T02:18:23;222.85;;;114.28;;
66587;SDS011;53446;50.076;8.198;2023-05-07T02:20:23;229.13;;;118.10;;
66587;SDS011;53446;50.076;8.198;2023-05-07T02:22:23;227.20;;;116.60;;
66587;SDS011;53446;50.076;8.198;2023-05-07T02:24:23;230.47;;;117.77;;
66587;SDS011;53446;50.076;8.198;2023-05-07T02:26:24;230.87;;;117.40;;
66587;SDS011;53446;50.076;8.198;2023-05-07T02:28:25;235.13;;;118.30;;
66587;SDS011;53446;50.076;8.198;2023-05-07T02:30:26;222.80;;;114.10;;
66587;SDS011;53446;50.076;8.198;2023-05-07T02:32:26;236.37;;;118.97;;
66587;SDS011;53446;50.076;8.198;2023-05-07T02:34:27;246.43;;;121.20;;
66587;SDS011;53446;50.076;8.198;2023-05-07T02:36:27;243.40;;;120.95;;
66587;SDS011;53446;50.076;8.198;2023-05-07T02:38:27;246.10;;;121.67;;
66587;SDS011;53446;50.076;8.198;2023-05-07T02:40:27;248.13;;;122.00;;
66587;SDS011;53446;50.076;8.198;2023-05-07T02:42:28;248.03;;;121.73;;
66587;SDS011;53446;50.076;8.198;2023-05-07T02:44:28;251.07;;;122.57;;
66587;SDS011;53446;50.076;8.198;2023-05-07T02:46:31;249.45;;;122.07;;
66587;SDS011;53446;50.076;8.198;2023-05-07T02:48:32;250.50;;;123.27;;
66587;SDS011;53446;50.076;8.198;2023-05-07T02:50:32;250.05;;;123.70;;
66587;SDS011;53446;50.076;8.198;2023-05-07T02:52:33;248.77;;;121.50;;
66587;SDS011;53446;50.076;8.198;2023-05-07T02:54:33;253.97;;;123.97;;
66587;SDS011;53446;50.076;8.198;2023-05-07T02:56:33;253.63;;;124.03;;
66587;SDS011;53446;50.076;8.198;2023-05-07T02:58:33;254.53;;;124.73;;
66587;SDS011;53446;50.076;8.198;2023-05-07T03:00:34;256.50;;;126.05;;
66587;SDS011;53446;50.076;8.198;2023-05-07T03:02:34;257.53;;;126.53;;
66587;SDS011;53446;50.076;8.198;2023-05-07T03:04:35;254.83;;;126.07;;
66587;SDS011;53446;50.076;8.198;2023-05-07T03:06:35;254.67;;;125.37;;
66587;SDS011;53446;50.076;8.198;2023-05-07T03:08:36;255.27;;;125.93;;
66587;SDS011;53446;50.076;8.198;2023-05-07T03:10:36;255.70;;;125.80;;
66587;SDS011;53446;50.076;8.198;2023-05-07T03:12:37;255.70;;;125.87;;
66587;SDS011;53446;50.076;8.198;2023-05-07T03:14:37;258.05;;;127.28;;
66587;SDS011;53446;50.076;8.198;2023-05-07T03:16:38;257.97;;;127.30;;
66587;SDS011;53446;50.076;8.198;2023-05-07T03:18:38;257.93;;;127.00;;
66587;SDS011;53446;50.076;8.198;2023-05-07T03:20:38;258.47;;;127.47;;
66587;SDS011;53446;50.076;8.198;2023-05-07T03:22:39;259.75;;;126.35;;
66587;SDS011;53446;50.076;8.198;2023-05-07T03:24:40;256.30;;;126.00;;
66587;SDS011;53446;50.076;8.198;2023-05-07T03:26:40;257.77;;;126.50;;
66587;SDS011;53446;50.076;8.198;2023-05-07T03:28:40;261.17;;;126.53;;
66587;SDS011;53446;50.076;8.198;2023-05-07T03:30:40;257.90;;;126.70;;
66587;SDS011;53446;50.076;8.198;2023-05-07T03:32:41;260.20;;;126.00;;
66587;SDS011;53446;50.076;8.198;2023-05-07T03:34:41;261.30;;;127.53;;
66587;SDS011;53446;50.076;8.198;2023-05-07T03:36:41;260.37;;;124.40;;
66587;SDS011;53446;50.076;8.198;2023-05-07T03:38:42;261.30;;;124.93;;
66587;SDS011;53446;50.076;8.198;2023-05-07T03:40:42;261.77;;;125.17;;
66587;SDS011;53446;50.076;8.198;2023-05-07T03:42:42;265.40;;;126.13;;
66587;SDS011;53446;50.076;8.198;2023-05-07T03:44:42;262.23;;;124.90;;
66587;SDS011;53446;50.076;8.198;2023-05-07T03:46:43;261.60;;;125.57;;
66587;SDS011;53446;50.076;8.198;2023-05-07T03:48:43;267.63;;;127.93;;
66587;SDS011;53446;50.076;8.198;2023-05-07T03:50:43;262.60;;;126.27;;
66587;SDS011;53446;50.076;8.198;2023-05-07T03:52:44;270.50;;;128.10;;
66587;SDS011;53446;50.076;8.198;2023-05-07T03:54:45;268.05;;;127.82;;
66587;SDS011;53446;50.076;8.198;2023-05-07T03:56:45;267.50;;;127.93;;
66587;SDS011;53446;50.076;8.198;2023-05-07T03:58:45;265.73;;;127.30;;
66587;SDS011;53446;50.076;8.198;2023-05-07T04:00:46;267.77;;;127.68;;
66587;SDS011;53446;50.076;8.198;2023-05-07T04:02:46;270.83;;;128.23;;
66587;SDS011;53446;50.076;8.198;2023-05-07T04:04:48;262.73;;;126.00;;
66587;SDS011;53446;50.076;8.198;2023-05-07T04:06:48;259.80;;;124.72;;
66587;SDS011;53446;50.076;8.198;2023-05-07T04:08:48;262.00;;;126.07;;
66587;SDS011;53446;50.076;8.198;2023-05-07T04:10:54;262.17;;;126.37;;
66587;SDS011;53446;50.076;8.198;2023-05-07T04:12:57;270.95;;;128.32;;
66587;SDS011;53446;50.076;8.198;2023-05-07T04:14:57;263.00;;;125.73;;
66587;SDS011;53446;50.076;8.198;2023-05-07T04:16:58;261.77;;;124.13;;
66587;SDS011;53446;50.076;8.198;2023-05-07T04:18:59;261.75;;;124.43;;
66587;SDS011;53446;50.076;8.198;2023-05-07T04:20:59;263.83;;;124.90;;
66587;SDS011;53446;50.076;8.198;2023-05-07T04:22:59;262.93;;;124.60;;
66587;SDS011;53446;50.076;8.198;2023-05-07T04:25:00;265.03;;;125.40;;
66587;SDS011;53446;50.076;8.198;2023-05-07T04:27:01;261.95;;;124.22;;
66587;SDS011;53446;50.076;8.198;2023-05-07T04:29:01;264.67;;;125.17;;
66587;SDS011;53446;50.076;8.198;2023-05-07T04:31:01;263.90;;;127.47;;
66587;SDS011;53446;50.076;8.198;2023-05-07T04:33:02;263.00;;;125.20;;
66587;SDS011;53446;50.076;8.198;2023-05-07T04:35:02;263.90;;;124.80;;
66587;SDS011;53446;50.076;8.198;2023-05-07T04:37:03;264.17;;;126.73;;
66587;SDS011;53446;50.076;8.198;2023-05-07T04:39:03;265.37;;;126.40;;
66587;SDS011;53446;50.076;8.198;2023-05-07T04:41:04;264.95;;;126.53;;
66587;SDS011;53446;50.076;8.198;2023-05-07T04:43:05;266.60;;;125.43;;
66587;SDS011;53446;50.076;8.198;2023-05-07T04:45:07;266.85;;;125.35;;
66587;SDS011;53446;50.076;8.198;2023-05-07T04:47:08;268.45;;;127.53;;
66587;SDS011;53446;50.076;8.198;2023-05-07T04:49:08;266.43;;;127.03;;
66587;SDS011;53446;50.076;8.198;2023-05-07T04:51:10;265.05;;;127.28;;
66587;SDS011;53446;50.076;8.198;2023-05-07T04:53:10;265.27;;;127.17;;
66587;SDS011;53446;50.076;8.198;2023-05-07T04:55:11;265.93;;;125.50;;
66587;SDS011;53446;50.076;8.198;2023-05-07T04:57:11;263.57;;;125.37;;
66587;SDS011;53446;50.076;8.198;2023-05-07T04:59:11;265.15;;;126.03;;
66587;SDS011;53446;50.076;8.198;2023-05-07T05:01:11;265.42;;;125.50;;
66587;SDS011;53446;50.076;8.198;2023-05-07T05:03:12;262.83;;;126.17;;
66587;SDS011;53446;50.076;8.198;2023-05-07T05:05:12;264.07;;;128.17;;
66587;SDS011;53446;50.076;8.198;2023-05-07T05:07:12;262.07;;;127.57;;
66587;SDS011;53446;50.076;8.198;2023-05-07T05:09:13;263.40;;;128.17;;
66587;SDS011;53446;50.076;8.198;2023-05-07T05:11:14;261.02;;;126.50;;
66587;SDS011;53446;50.076;8.198;2023-05-07T05:13:14;258.67;;;125.77;;
66587;SDS011;53446;50.076;8.198;2023-05-07T05:15:15;259.80;;;123.72;;
66587;SDS011;53446;50.076;8.198;2023-05-07T05:17:15;264.60;;;125.93;;
66587;SDS011;53446;50.076;8.198;2023-05-07T05:19:15;263.40;;;124.63;;
66587;SDS011;53446;50.076;8.198;2023-05-07T05:21:16;256.33;;;123.13;;
66587;SDS011;53446;50.076;8.198;2023-05-07T05:23:16;242.50;;;119.18;;
66587;SDS011;53446;50.076;8.198;2023-05-07T05:25:17;260.08;;;126.13;;
66587;SDS011;53446;50.076;8.198;2023-05-07T05:27:17;255.87;;;122.17;;
66587;SDS011;53446;50.076;8.198;2023-05-07T05:29:17;254.47;;;122.40;;
66587;SDS011;53446;50.076;8.198;2023-05-07T05:31:18;258.30;;;124.87;;
66587;SDS011;53446;50.076;8.198;2023-05-07T05:33:18;252.17;;;121.37;;
66587;SDS011;53446;50.076;8.198;2023-05-07T05:35:18;253.17;;;122.03;;
66587;SDS011;53446;50.076;8.198;2023-05-07T05:37:19;252.10;;;121.67;;
66587;SDS011;53446;50.076;8.198;2023-05-07T05:39:19;251.60;;;120.93;;
66587;SDS011;53446;50.076;8.198;2023-05-07T05:41:19;252.38;;;122.05;;
66587;SDS011;53446;50.076;8.198;2023-05-07T05:43:20;249.37;;;121.50;;
66587;SDS011;53446;50.076;8.198;2023-05-07T05:45:21;249.10;;;122.25;;
66587;SDS011;53446;50.076;8.198;2023-05-07T05:47:21;240.70;;;120.25;;
66587;SDS011;53446;50.076;8.198;2023-05-07T05:49:22;235.97;;;119.13;;
66587;SDS011;53446;50.076;8.198;2023-05-07T05:51:22;233.07;;;118.95;;
66587;SDS011;53446;50.076;8.198;2023-05-07T05:53:23;224.70;;;116.90;;
66587;SDS011;53446;50.076;8.198;2023-05-07T05:55:23;225.07;;;116.33;;
66587;SDS011;53446;50.076;8.198;2023-05-07T05:57:23;224.00;;;115.17;;
66587;SDS011;53446;50.076;8.198;2023-05-07T05:59:24;220.60;;;114.20;;
66587;SDS011;53446;50.076;8.198;2023-05-07T06:01:24;216.93;;;114.83;;
66587;SDS011;53446;50.076;8.198;2023-05-07T06:03:25;216.70;;;113.32;;
66587;SDS011;53446;50.076;8.198;2023-05-07T06:05:26;226.47;;;115.43;;
66587;SDS011;53446;50.076;8.198;2023-05-07T06:07:26;221.30;;;115.10;;
66587;SDS011;53446;50.076;8.198;2023-05-07T06:09:26;230.40;;;117.07;;
66587;SDS011;53446;50.076;8.198;2023-05-07T06:11:26;229.33;;;116.17;;
66587;SDS011;53446;50.076;8.198;2023-05-07T06:13:27;226.60;;;116.63;;
66587;SDS011;53446;50.076;8.198;2023-05-07T06:15:27;223.57;;;113.93;;
66587;SDS011;53446;50.076;8.198;2023-05-07T06:17:27;223.60;;;115.63;;
66587;SDS011;53446;50.076;8.198;2023-05-07T06:19:28;221.90;;;115.23;;
66587;SDS011;53446;50.076;8.198;2023-05-07T06:21:28;222.47;;;114.97;;
66587;SDS011;53446;50.076;8.198;2023-05-07T06:23:28;219.50;;;112.60;;
66587;SDS011;53446;50.076;8.198;2023-05-07T06:25:29;219.13;;;113.75;;
66587;SDS011;53446;50.076;8.198;2023-05-07T06:27:29;213.67;;;111.07;;
66587;SDS011;53446;50.076;8.198;2023-05-07T06:29:29;217.37;;;113.10;;
66587;SDS011;53446;50.076;8.198;2023-05-07T06:31:33;217.18;;;113.25;;
66587;SDS011;53446;50.076;8.198;2023-05-07T06:33:33;217.60;;;112.60;;
66587;SDS011;53446;50.076;8.198;2023-05-07T06:35:33;199.30;;;107.83;;
66587;SDS011;53446;50.076;8.198;2023-05-07T06:37:34;200.47;;;108.20;;
66587;SDS011;53446;50.076;8.198;2023-05-07T06:39:34;199.53;;;109.67;;
66587;SDS011;53446;50.076;8.198;2023-05-07T06:41:35;202.23;;;109.87;;
66587;SDS011;53446;50.076;8.198;2023-05-07T06:43:35;196.88;;;107.07;;
66587;SDS011;53446;50.076;8.198;2023-05-07T06:45:35;201.50;;;108.20;;
66587;SDS011;53446;50.076;8.198;2023-05-07T06:47:36;198.80;;;108.23;;
66587;SDS011;53446;50.076;8.198;2023-05-07T06:49:36;201.57;;;109.07;;
66587;SDS011;53446;50.076;8.198;2023-05-07T06:51:36;200.07;;;107.93;;
66587;SDS011;53446;50.076;8.198;2023-05-07T06:53:37;196.87;;;107.70;;
66587;SDS011;53446;50.076;8.198;2023-05-07T06:55:37;195.87;;;107.20;;
66587;SDS011;53446;50.076;8.198;2023-05-07T06:57:38;192.35;;;105.85;;
66587;SDS011;53446;50.076;8.198;2023-05-07T06:59:38;195.63;;;107.50;;
66587;SDS011;53446;50.076;8.198;2023-05-07T07:01:39;194.53;;;106.60;;
66587;SDS011;53446;50.076;8.198;2023-05-07T07:03:39;192.55;;;105.15;;
66587;SDS011;53446;50.076;8.198;2023-05-07T07:05:40;196.43;;;106.37;;
66587;SDS011;53446;50.076;8.198;2023-05-07T07:07:41;195.20;;;106.97;;
66587;SDS011;53446;50.076;8.198;2023-05-07T07:09:41;192.83;;;106.47;;
66587;SDS011;53446;50.076;8.198;2023-05-07T07:11:41;190.83;;;106.17;;
66587;SDS011;53446;50.076;8.198;2023-05-07T07:13:42;195.47;;;106.50;;
66587;SDS011;53446;50.076;8.198;2023-05-07T07:15:43;196.50;;;107.20;;
66587;SDS011;53446;50.076;8.198;2023-05-07T07:17:43;200.13;;;108.37;;
66587;SDS011;53446;50.076;8.198;2023-05-07T07:19:43;194.83;;;106.73;;
66587;SDS011;53446;50.076;8.198;2023-05-07T07:21:44;197.33;;;108.57;;
66587;SDS011;53446;50.076;8.198;2023-05-07T07:23:44;194.30;;;105.97;;
66587;SDS011;53446;50.076;8.198;2023-05-07T07:25:45;196.07;;;106.73;;
66587;SDS011;53446;50.076;8.198;2023-05-07T07:27:45;205.30;;;110.03;;
66587;SDS011;53446;50.076;8.198;2023-05-07T07:29:45;194.93;;;106.47;;
66587;SDS011;53446;50.076;8.198;2023-05-07T07:31:47;191.30;;;105.83;;
66587;SDS011;53446;50.076;8.198;2023-05-07T07:33:48;190.38;;;104.97;;
66587;SDS011;53446;50.076;8.198;2023-05-07T07:35:50;182.68;;;102.85;;
66587;SDS011;53446;50.076;8.198;2023-05-07T07:37:50;188.80;;;105.20;;
66587;SDS011;53446;50.076;8.198;2023-05-07T07:39:51;178.45;;;100.97;;
66587;SDS011;53446;50.076;8.198;2023-05-07T07:41:51;189.68;;;104.28;;
66587;SDS011;53446;50.076;8.198;2023-05-07T07:43:51;183.77;;;104.20;;
66587;SDS011;53446;50.076;8.198;2023-05-07T07:45:51;180.53;;;102.07;;
66587;SDS011;53446;50.076;8.198;2023-05-07T07:47:52;184.07;;;102.47;;
66587;SDS011;53446;50.076;8.198;2023-05-07T07:49:52;176.07;;;100.03;;
66587;SDS011;53446;50.076;8.198;2023-05-07T07:51:52;176.90;;;101.20;;
66587;SDS011;53446;50.076;8.198;2023-05-07T07:53:53;173.17;;;100.50;;
66587;SDS011;53446;50.076;8.198;2023-05-07T07:55:53;170.57;;;99.40;;
66587;SDS011;53446;50.076;8.198;2023-05-07T07:57:53;174.33;;;100.67;;
66587;SDS011;53446;50.076;8.198;2023-05-07T07:59:53;166.70;;;98.10;;
66587;SDS011;53446;50.076;8.198;2023-05-07T08:01:54;167.77;;;97.93;;
66587;SDS011;53446;50.076;8.198;2023-05-07T08:03:56;165.43;;;100.00;;
66587;SDS011;53446;50.076;8.198;2023-05-07T08:05:59;166.77;;;98.32;;
66587;SDS011;53446;50.076;8.198;2023-05-07T08:08:00;162.13;;;96.40;;
66587;SDS011;53446;50.076;8.198;2023-05-07T08:10:00;144.38;;;90.47;;
66587;SDS011;53446;50.076;8.198;2023-05-07T08:12:00;139.48;;;88.28;;
66587;SDS011;53446;50.076;8.198;2023-05-07T08:14:01;137.30;;;87.67;;
66587;SDS011;53446;50.076;8.198;2023-05-07T08:16:01;135.70;;;86.60;;
66587;SDS011;53446;50.076;8.198;2023-05-07T08:18:02;142.77;;;90.67;;
66587;SDS011;53446;50.076;8.198;2023-05-07T08:20:02;134.85;;;87.82;;
66587;SDS011;53446;50.076;8.198;2023-05-07T08:22:03;121.37;;;81.93;;
66587;SDS011;53446;50.076;8.198;2023-05-07T08:24:05;119.43;;;82.15;;
66587;SDS011;53446;50.076;8.198;2023-05-07T08:26:07;124.22;;;83.25;;
66587;SDS011;53446;50.076;8.198;2023-05-07T08:28:08;126.77;;;84.60;;
66587;SDS011;53446;50.076;8.198;2023-05-07T08:30:08;121.78;;;82.07;;
66587;SDS011;53446;50.076;8.198;2023-05-07T08:32:09;121.65;;;82.45;;
66587;SDS011;53446;50.076;8.198;2023-05-07T08:34:10;118.67;;;81.10;;
66587;SDS011;53446;50.076;8.198;2023-05-07T08:36:10;117.23;;;80.67;;
66587;SDS011;53446;50.076;8.198;2023-05-07T08:38:10;96.77;;;75.13;;
66587;SDS011;53446;50.076;8.198;2023-05-07T08:40:11;100.77;;;73.87;;
66587;SDS011;53446;50.076;8.198;2023-05-07T08:42:11;105.10;;;75.40;;
66587;SDS011;53446;50.076;8.198;2023-05-07T08:44:13;38.28;;;33.25;;
66587;SDS011;53446;50.076;8.198;2023-05-07T08:46:17;39.38;;;35.28;;
66587;SDS011;53446;50.076;8.198;2023-05-07T08:48:21;51.83;;;46.45;;
66587;SDS011;53446;50.076;8.198;2023-05-07T08:50:22;39.00;;;34.80;;
66587;SDS011;53446;50.076;8.198;2023-05-07T08:52:22;46.93;;;41.73;;
66587;SDS011;53446;50.076;8.198;2023-05-07T08:54:23;55.17;;;48.93;;
66587;SDS011;53446;50.076;8.198;2023-05-07T08:56:23;57.47;;;49.80;;
66587;SDS011;53446;50.076;8.198;2023-05-07T08:58:25;56.97;;;48.90;;
66587;SDS011;53446;50.076;8.198;2023-05-07T09:00:25;53.07;;;47.27;;
66587;SDS011;53446;50.076;8.198;2023-05-07T09:02:25;49.93;;;44.33;;
66587;SDS011;53446;50.076;8.198;2023-05-07T09:04:26;48.83;;;42.93;;
66587;SDS011;53446;50.076;8.198;2023-05-07T09:06:26;47.70;;;42.63;;
66587;SDS011;53446;50.076;8.198;2023-05-07T09:08:26;55.42;;;45.78;;
66587;SDS011;53446;50.076;8.198;2023-05-07T09:10:27;49.70;;;44.37;;
66587;SDS011;53446;50.076;8.198;2023-05-07T09:12:27;54.00;;;47.60;;
66587;SDS011;53446;50.076;8.198;2023-05-07T09:14:27;51.50;;;43.83;;
66587;SDS011;53446;50.076;8.198;2023-05-07T09:16:29;45.37;;;40.27;;
66587;SDS011;53446;50.076;8.198;2023-05-07T09:18:30;42.22;;;36.47;;
66587;SDS011;53446;50.076;8.198;2023-05-07T09:20:30;41.57;;;36.97;;
66587;SDS011;53446;50.076;8.198;2023-05-07T09:22:32;47.78;;;41.22;;
66587;SDS011;53446;50.076;8.198;2023-05-07T09:24:33;52.90;;;44.15;;
66587;SDS011;53446;50.076;8.198;2023-05-07T09:26:37;49.72;;;41.97;;
66587;SDS011;53446;50.076;8.198;2023-05-07T09:28:38;43.40;;;36.07;;
66587;SDS011;53446;50.076;8.198;2023-05-07T09:30:40;42.35;;;36.25;;
66587;SDS011;53446;50.076;8.198;2023-05-07T09:32:40;39.97;;;35.57;;
66587;SDS011;53446;50.076;8.198;2023-05-07T09:34:41;42.10;;;35.07;;
66587;SDS011;53446;50.076;8.198;2023-05-07T09:36:41;40.85;;;33.85;;
66587;SDS011;53446;50.076;8.198;2023-05-07T09:38:42;40.90;;;32.28;;
66587;SDS011;53446;50.076;8.198;2023-05-07T09:40:42;36.30;;;29.70;;
66587;SDS011;53446;50.076;8.198;2023-05-07T09:42:42;33.10;;;27.00;;
66587;SDS011;53446;50.076;8.198;2023-05-07T09:44:43;31.97;;;20.83;;
66587;SDS011;53446;50.076;8.198;2023-05-07T09:46:44;28.52;;;15.98;;
66587;SDS011;53446;50.076;8.198;2023-05-07T09:48:46;24.73;;;15.27;;
66587;SDS011;53446;50.076;8.198;2023-05-07T09:50:49;25.23;;;14.67;;
66587;SDS011;53446;50.076;8.198;2023-05-07T09:52:50;22.73;;;13.07;;
66587;SDS011;53446;50.076;8.198;2023-05-07T09:54:50;24.67;;;14.23;;
66587;SDS011;53446;50.076;8.198;2023-05-07T09:56:51;22.87;;;12.70;;
66587;SDS011;53446;50.076;8.198;2023-05-07T09:58:54;27.02;;;15.30;;
66587;SDS011;53446;50.076;8.198;2023-05-07T10:00:56;24.60;;;14.37;;
66587;SDS011;53446;50.076;8.198;2023-05-07T10:02:57;25.50;;;14.48;;
66587;SDS011;53446;50.076;8.198;2023-05-07T10:04:57;26.43;;;15.23;;
66587;SDS011;53446;50.076;8.198;2023-05-07T10:07:00;25.75;;;15.30;;
66587;SDS011;53446;50.076;8.198;2023-05-07T10:09:01;25.63;;;15.07;;
66587;SDS011;53446;50.076;8.198;2023-05-07T10:11:03;25.75;;;15.40;;
66587;SDS011;53446;50.076;8.198;2023-05-07T10:13:04;26.67;;;15.67;;
66587;SDS011;53446;50.076;8.198;2023-05-07T10:15:10;25.63;;;14.25;;
66587;SDS011;53446;50.076;8.198;2023-05-07T10:17:11;24.17;;;13.93;;
66587;SDS011;53446;50.076;8.198;2023-05-07T10:19:12;22.00;;;13.00;;
66587;SDS011;53446;50.076;8.198;2023-05-07T10:21:19;25.33;;;14.50;;
66587;SDS011;53446;50.076;8.198;2023-05-07T10:23:22;27.70;;;15.32;;
66587;SDS011;53446;50.076;8.198;2023-05-07T10:25:28;24.35;;;14.07;;
66587;SDS011;53446;50.076;8.198;2023-05-07T10:27:30;26.23;;;14.07;;
66587;SDS011;53446;50.076;8.198;2023-05-07T10:29:35;23.25;;;13.10;;
66587;SDS011;53446;50.076;8.198;2023-05-07T10:34:09;21.08;;;13.23;;
66587;SDS011;53446;50.076;8.198;2023-05-07T10:36:11;21.52;;;12.30;;
66587;SDS011;53446;50.076;8.198;2023-05-07T10:38:11;25.07;;;13.77;;
66587;SDS011;53446;50.076;8.198;2023-05-07T10:40:12;19.77;;;11.70;;
66587;SDS011;53446;50.076;8.198;2023-05-07T10:42:13;22.55;;;12.85;;
66587;SDS011;53446;50.076;8.198;2023-05-07T10:44:27;22.70;;;12.35;;
66587;SDS011;53446;50.076;8.198;2023-05-07T10:46:28;23.92;;;13.48;;
66587;SDS011;53446;50.076;8.198;2023-05-07T10:48:28;23.65;;;13.60;;
66587;SDS011;53446;50.076;8.198;2023-05-07T10:50:28;25.33;;;13.70;;
66587;SDS011;53446;50.076;8.198;2023-05-07T10:52:29;36.17;;;19.43;;
66587;SDS011;53446;50.076;8.198;2023-05-07T10:54:30;23.42;;;12.95;;
66587;SDS011;53446;50.076;8.198;2023-05-07T10:56:30;24.33;;;13.67;;
66587;SDS011;53446;50.076;8.198;2023-05-07T10:58:30;22.87;;;13.17;;
66587;SDS011;53446;50.076;8.198;2023-05-07T11:03:04;22.73;;;13.23;;
66587;SDS011;53446;50.076;8.198;2023-05-07T11:05:21;22.55;;;12.90;;
66587;SDS011;53446;50.076;8.198;2023-05-07T11:07:25;27.48;;;15.20;;
66587;SDS011;53446;50.076;8.198;2023-05-07T11:11:51;20.13;;;11.93;;
66587;SDS011;53446;50.076;8.198;2023-05-07T11:13:52;22.57;;;12.90;;
66587;SDS011;53446;50.076;8.198;2023-05-07T11:15:52;30.00;;;17.90;;
66587;SDS011;53446;50.076;8.198;2023-05-07T11:17:53;26.47;;;16.57;;
66587;SDS011;53446;50.076;8.198;2023-05-07T11:19:57;22.17;;;13.35;;
66587;SDS011;53446;50.076;8.198;2023-05-07T11:21:58;24.40;;;13.77;;
66587;SDS011;53446;50.076;8.198;2023-05-07T11:23:58;23.43;;;13.20;;
66587;SDS011;53446;50.076;8.198;2023-05-07T11:26:02;23.52;;;13.45;;
66587;SDS011;53446;50.076;8.198;2023-05-07T11:28:04;25.98;;;14.20;;
66587;SDS011;53446;50.076;8.198;2023-05-07T11:30:07;23.67;;;14.15;;
66587;SDS011;53446;50.076;8.198;2023-05-07T11:32:07;21.43;;;12.13;;
66587;SDS011;53446;50.076;8.198;2023-05-07T11:34:08;24.37;;;14.83;;
66587;SDS011;53446;50.076;8.198;2023-05-07T11:36:09;29.88;;;18.77;;
66587;SDS011;53446;50.076;8.198;2023-05-07T11:38:09;22.53;;;13.63;;
66587;SDS011;53446;50.076;8.198;2023-05-07T11:40:10;28.65;;;17.00;;